Time,TemperatureF,DewpointF,PressureIn,WindDirection,WindDirectionDegrees,WindSpeedMPH,WindSpeedGustMPH,Humidity,HourlyPrecipIn,Conditions,Clouds,dailyrainin,SoftwareType,DateUTC
2013-01-06 00:00:00,44.6,41.3,30.24,ENE,78,0.0,1.0,88,0.00,,,0.00,Wunderground v.1.15,2013-01-06 05:00:00,
2013-01-06 00:03:00,44.7,41.4,30.24,ENE,78,2.0,2.0,88,0.00,,,0.00,Wunderground v.1.15,2013-01-06 05:03:00,
2013-01-06 00:04:00,44.7,41.4,30.24,ENE,78,1.0,2.0,88,0.00,,,0.00,Wunderground v.1.15,2013-01-06 05:04:00,
2013-01-06 00:06:00,44.8,41.5,30.24,ENE,78,2.0,2.0,88,0.00,,,0.00,Wunderground v.1.15,2013-01-06 05:06:00,
2013-01-06 00:11:00,45.0,42.0,30.24,ENE,78,2.0,3.0,89,0.00,,,0.00,Wunderground v.1.15,2013-01-06 05:11:00,
2013-01-06 00:16:00,45.2,42.2,30.24,ENE,78,3.0,4.0,89,0.00,,,0.00,Wunderground v.1.15,2013-01-06 05:16:00,
2013-01-06 00:21:00,45.4,42.1,30.24,ENE,73,3.0,4.0,88,0.00,,,0.00,Wunderground v.1.15,2013-01-06 05:21:00,
2013-01-06 00:26:00,45.7,42.3,30.24,NE,38,3.0,6.0,88,0.00,,,0.00,Wunderground v.1.15,2013-01-06 05:26:00,
2013-01-06 00:31:00,46.0,42.6,30.24,NNW,334,2.0,4.0,88,0.00,,,0.00,Wunderground v.1.15,2013-01-06 05:31:00,
2013-01-06 00:36:00,45.9,42.5,30.24,NW,311,6.0,9.0,88,0.00,,,0.00,Wunderground v.1.15,2013-01-06 05:36:00,
2013-01-06 00:41:00,46.0,42.6,30.24,NW,306,4.0,6.0,88,0.00,,,0.00,Wunderground v.1.15,2013-01-06 05:41:00,
2013-01-06 00:46:00,46.1,42.7,30.24,NW,304,4.0,7.0,88,0.00,,,0.00,Wunderground v.1.15,2013-01-06 05:46:00,
2013-01-06 00:51:00,46.1,42.4,30.24,WNW,301,3.0,9.0,87,0.00,,,0.00,Wunderground v.1.15,2013-01-06 05:51:00,
2013-01-06 00:56:00,46.2,42.5,30.24,WNW,299,5.0,9.0,87,0.00,,,0.00,Wunderground v.1.15,2013-01-06 05:56:00,
2013-01-06 01:01:00,46.2,42.5,30.24,WNW,297,4.0,8.0,87,0.00,,,0.00,Wunderground v.1.15,2013-01-06 06:01:00,
2013-01-06 01:06:00,46.2,42.5,30.24,WNW,299,5.0,8.0,87,0.00,,,0.00,Wunderground v.1.15,2013-01-06 06:06:00,
2013-01-06 01:11:00,46.2,42.5,30.24,WNW,300,6.0,7.0,87,0.00,,,0.00,Wunderground v.1.15,2013-01-06 06:11:00,
2013-01-06 01:16:00,46.2,42.5,30.24,WNW,298,5.0,9.0,87,0.00,,,0.00,Wunderground v.1.15,2013-01-06 06:16:00,
2013-01-06 01:21:00,46.3,42.9,30.24,WNW,296,4.0,7.0,88,0.00,,,0.00,Wunderground v.1.15,2013-01-06 06:21:00,
2013-01-06 01:26:00,46.3,42.9,30.24,WNW,298,3.0,10.0,88,0.00,,,0.00,Wunderground v.1.15,2013-01-06 06:26:00,
2013-01-06 01:31:00,46.3,42.9,30.24,WNW,296,6.0,12.0,88,0.00,,,0.00,Wunderground v.1.15,2013-01-06 06:31:00,
2013-01-06 01:36:00,46.3,43.2,30.24,WNW,294,4.0,12.0,89,0.00,,,0.00,Wunderground v.1.15,2013-01-06 06:36:00,
2013-01-06 01:41:00,46.1,43.0,30.24,WNW,292,3.0,7.0,89,0.00,,,0.00,Wunderground v.1.15,2013-01-06 06:41:00,
2013-01-06 01:46:00,46.0,42.9,30.23,WNW,292,4.0,9.0,89,0.00,,,0.00,Wunderground v.1.15,2013-01-06 06:46:00,
2013-01-06 01:51:00,46.0,42.9,30.23,WNW,292,3.0,6.0,89,0.00,,,0.00,Wunderground v.1.15,2013-01-06 06:51:00,
2013-01-06 01:56:00,46.0,42.9,30.23,WNW,292,5.0,6.0,89,0.00,,,0.00,Wunderground v.1.15,2013-01-06 06:56:00,
2013-01-06 02:01:00,45.9,42.8,30.23,WNW,292,3.0,7.0,89,0.00,,,0.00,Wunderground v.1.15,2013-01-06 07:01:00,
2013-01-06 02:06:00,45.8,42.7,30.22,WNW,291,3.0,7.0,89,0.00,,,0.00,Wunderground v.1.15,2013-01-06 07:06:00,
2013-01-06 02:11:00,45.8,42.7,30.22,WNW,291,2.0,4.0,89,0.00,,,0.00,Wunderground v.1.15,2013-01-06 07:11:00,
2013-01-06 02:16:00,45.8,42.4,30.22,WNW,291,2.0,6.0,88,0.00,,,0.00,Wunderground v.1.15,2013-01-06 07:16:00,
2013-01-06 02:21:00,45.9,42.5,30.22,WNW,291,2.0,4.0,88,0.00,,,0.00,Wunderground v.1.15,2013-01-06 07:21:00,
2013-01-06 02:26:00,45.9,42.5,30.22,WNW,291,0.0,6.0,88,0.00,,,0.00,Wunderground v.1.15,2013-01-06 07:26:00,
2013-01-06 02:31:00,46.0,42.6,30.22,WNW,291,3.0,4.0,88,0.00,,,0.00,Wunderground v.1.15,2013-01-06 07:31:00,
2013-01-06 02:36:00,46.0,42.6,30.22,WNW,291,0.0,4.0,88,0.00,,,0.00,Wunderground v.1.15,2013-01-06 07:36:00,
2013-01-06 02:41:00,46.0,42.6,30.22,WNW,291,1.0,2.0,88,0.00,,,0.00,Wunderground v.1.15,2013-01-06 07:41:00,
2013-01-06 02:46:00,45.9,42.5,30.22,WNW,291,0.0,3.0,88,0.00,,,0.00,Wunderground v.1.15,2013-01-06 07:46:00,
2013-01-06 02:51:00,45.9,42.5,30.22,WNW,291,3.0,4.0,88,0.00,,,0.00,Wunderground v.1.15,2013-01-06 07:51:00,
2013-01-06 02:56:00,45.9,42.5,30.22,WNW,291,2.0,4.0,88,0.00,,,0.00,Wunderground v.1.15,2013-01-06 07:56:00,
2013-01-06 03:01:00,45.9,42.5,30.21,WNW,291,0.0,2.0,88,0.00,,,0.00,Wunderground v.1.15,2013-01-06 08:01:00,
2013-01-06 03:06:00,45.8,42.4,30.21,WNW,291,0.0,3.0,88,0.00,,,0.00,Wunderground v.1.15,2013-01-06 08:06:00,
2013-01-06 03:11:00,45.8,42.2,30.20,WNW,291,0.0,1.0,87,0.00,,,0.00,Wunderground v.1.15,2013-01-06 08:11:00,
2013-01-06 03:16:00,45.7,42.1,30.20,WNW,291,0.0,1.0,87,0.00,,,0.00,Wunderground v.1.15,2013-01-06 08:16:00,
2013-01-06 03:21:00,45.7,42.1,30.20,WNW,291,0.0,0.0,87,0.00,,,0.00,Wunderground v.1.15,2013-01-06 08:21:00,
2013-01-06 03:26:00,45.7,42.1,30.21,WNW,291,0.0,2.0,87,0.00,,,0.00,Wunderground v.1.15,2013-01-06 08:26:00,
2013-01-06 03:31:00,45.7,42.1,30.21,WNW,291,0.0,0.0,87,0.00,,,0.00,Wunderground v.1.15,2013-01-06 08:31:00,
2013-01-06 03:36:00,45.8,42.2,30.20,WNW,291,2.0,4.0,87,0.00,,,0.00,Wunderground v.1.15,2013-01-06 08:36:00,
2013-01-06 03:41:00,45.8,42.2,30.20,WNW,291,0.0,1.0,87,0.00,,,0.00,Wunderground v.1.15,2013-01-06 08:41:00,
2013-01-06 03:46:00,45.9,42.2,30.19,WNW,291,0.0,1.0,87,0.00,,,0.00,Wunderground v.1.15,2013-01-06 08:46:00,
2013-01-06 03:51:00,45.9,42.2,30.19,WNW,291,0.0,3.0,87,0.00,,,0.00,Wunderground v.1.15,2013-01-06 08:51:00,
2013-01-06 03:56:00,46.0,42.0,30.19,WNW,291,0.0,3.0,86,0.00,,,0.00,Wunderground v.1.15,2013-01-06 08:56:00,
2013-01-06 04:01:00,46.0,42.0,30.19,WNW,291,0.0,2.0,86,0.00,,,0.00,Wunderground v.1.15,2013-01-06 09:01:00,
2013-01-06 04:06:00,46.0,42.0,30.18,WNW,291,0.0,3.0,86,0.00,,,0.00,Wunderground v.1.15,2013-01-06 09:06:00,
2013-01-06 04:11:00,46.0,41.7,30.18,WNW,291,4.0,4.0,85,0.00,,,0.00,Wunderground v.1.15,2013-01-06 09:11:00,
2013-01-06 04:16:00,46.1,41.8,30.18,WNW,291,0.0,4.0,85,0.00,,,0.00,Wunderground v.1.15,2013-01-06 09:16:00,
2013-01-06 04:21:00,46.1,41.8,30.18,WNW,291,2.0,3.0,85,0.00,,,0.00,Wunderground v.1.15,2013-01-06 09:21:00,
2013-01-06 04:26:00,46.3,41.7,30.19,WNW,291,2.0,7.0,84,0.00,,,0.00,Wunderground v.1.15,2013-01-06 09:26:00,
2013-01-06 04:31:00,46.4,41.5,30.18,WNW,291,3.0,4.0,83,0.00,,,0.00,Wunderground v.1.15,2013-01-06 09:31:00,
2013-01-06 04:36:00,46.6,41.4,30.19,WNW,292,6.0,7.0,82,0.00,,,0.00,Wunderground v.1.15,2013-01-06 09:36:00,
2013-01-06 04:41:00,46.6,41.4,30.19,WNW,292,1.0,5.0,82,0.00,,,0.00,Wunderground v.1.15,2013-01-06 09:41:00,
2013-01-06 04:46:00,46.6,41.4,30.19,WNW,292,3.0,6.0,82,0.00,,,0.00,Wunderground v.1.15,2013-01-06 09:46:00,
2013-01-06 04:51:00,46.5,41.3,30.18,WNW,293,4.0,4.0,82,0.00,,,0.00,Wunderground v.1.15,2013-01-06 09:51:00,
2013-01-06 04:56:00,46.4,41.2,30.19,WNW,292,2.0,6.0,82,0.00,,,0.00,Wunderground v.1.15,2013-01-06 09:56:00,
2013-01-06 05:01:00,46.3,41.1,30.19,WNW,292,0.0,4.0,82,0.00,,,0.00,Wunderground v.1.15,2013-01-06 10:01:00,
2013-01-06 05:06:00,46.4,41.5,30.19,WNW,291,0.0,6.0,83,0.00,,,0.00,Wunderground v.1.15,2013-01-06 10:06:00,
2013-01-06 05:11:00,46.6,41.7,30.19,WNW,290,3.0,6.0,83,0.00,,,0.00,Wunderground v.1.15,2013-01-06 10:11:00,
2013-01-06 05:16:00,46.7,41.8,30.19,WNW,290,4.0,6.0,83,0.00,,,0.00,Wunderground v.1.15,2013-01-06 10:16:00,
2013-01-06 05:21:00,46.9,41.7,30.19,WNW,290,4.0,6.0,82,0.00,,,0.00,Wunderground v.1.15,2013-01-06 10:21:00,
2013-01-06 05:26:00,46.9,41.4,30.19,WNW,290,6.0,10.0,81,0.00,,,0.00,Wunderground v.1.15,2013-01-06 10:26:00,
2013-01-06 05:31:00,46.9,41.4,30.19,WNW,290,2.0,6.0,81,0.00,,,0.00,Wunderground v.1.15,2013-01-06 10:31:00,
2013-01-06 05:36:00,46.9,41.4,30.19,WNW,290,4.0,6.0,81,0.00,,,0.00,Wunderground v.1.15,2013-01-06 10:36:00,
2013-01-06 05:41:00,46.8,41.3,30.19,WNW,290,3.0,4.0,81,0.00,,,0.00,Wunderground v.1.15,2013-01-06 10:41:00,
2013-01-06 05:46:00,46.7,41.2,30.19,WNW,290,5.0,6.0,81,0.00,,,0.00,Wunderground v.1.15,2013-01-06 10:46:00,
2013-01-06 05:51:00,46.8,41.3,30.19,WNW,290,2.0,7.0,81,0.00,,,0.00,Wunderground v.1.15,2013-01-06 10:51:00,
2013-01-06 05:56:00,46.7,41.2,30.19,WNW,292,5.0,8.0,81,0.00,,,0.00,Wunderground v.1.15,2013-01-06 10:56:00,
2013-01-06 06:01:00,46.7,41.2,30.20,WNW,292,2.0,5.0,81,0.00,,,0.00,Wunderground v.1.15,2013-01-06 11:01:00,
2013-01-06 06:06:00,46.6,41.1,30.20,WNW,292,3.0,5.0,81,0.00,,,0.00,Wunderground v.1.15,2013-01-06 11:06:00,
2013-01-06 06:11:00,46.7,41.5,30.20,WNW,292,0.0,4.0,82,0.00,,,0.00,Wunderground v.1.15,2013-01-06 11:11:00,
2013-01-06 06:16:00,46.6,41.7,30.20,WNW,292,2.0,4.0,83,0.00,,,0.00,Wunderground v.1.15,2013-01-06 11:16:00,
2013-01-06 06:21:00,46.5,41.3,30.19,WNW,292,0.0,2.0,82,0.00,,,0.00,Wunderground v.1.15,2013-01-06 11:21:00,
2013-01-06 06:26:00,46.4,41.5,30.20,WNW,292,0.0,2.0,83,0.00,,,0.00,Wunderground v.1.15,2013-01-06 11:26:00,
2013-01-06 06:31:00,46.4,41.5,30.20,WNW,292,2.0,2.0,83,0.00,,,0.00,Wunderground v.1.15,2013-01-06 11:31:00,
2013-01-06 06:36:00,46.4,41.8,30.20,WNW,292,0.0,3.0,84,0.00,,,0.00,Wunderground v.1.15,2013-01-06 11:36:00,
2013-01-06 06:41:00,46.4,41.8,30.20,WNW,292,0.0,2.0,84,0.00,,,0.00,Wunderground v.1.15,2013-01-06 11:41:00,
2013-01-06 06:46:00,46.4,41.8,30.20,WNW,292,2.0,3.0,84,0.00,,,0.00,Wunderground v.1.15,2013-01-06 11:46:00,
2013-01-06 06:51:00,46.3,41.7,30.19,WNW,292,3.0,5.0,84,0.00,,,0.00,Wunderground v.1.15,2013-01-06 11:51:00,
2013-01-06 06:56:00,46.3,41.7,30.20,WNW,292,4.0,5.0,84,0.00,,,0.00,Wunderground v.1.15,2013-01-06 11:56:00,
2013-01-06 07:01:00,46.3,41.7,30.20,WNW,292,0.0,3.0,84,0.00,,,0.00,Wunderground v.1.15,2013-01-06 12:01:00,
2013-01-06 07:06:00,46.3,41.7,30.19,WNW,292,0.0,3.0,84,0.00,,,0.00,Wunderground v.1.15,2013-01-06 12:06:00,
2013-01-06 07:11:00,46.3,41.7,30.19,WNW,292,0.0,2.0,84,0.00,,,0.00,Wunderground v.1.15,2013-01-06 12:11:00,
2013-01-06 07:16:00,46.2,41.6,30.20,WNW,292,0.0,2.0,84,0.00,,,0.00,Wunderground v.1.15,2013-01-06 12:16:00,
2013-01-06 07:21:00,46.2,41.6,30.20,WNW,292,1.0,3.0,84,0.00,,,0.00,Wunderground v.1.15,2013-01-06 12:21:00,
2013-01-06 07:26:00,46.2,41.6,30.20,WNW,292,0.0,4.0,84,0.00,,,0.00,Wunderground v.1.15,2013-01-06 12:26:00,
2013-01-06 07:31:00,46.2,41.3,30.20,WNW,292,0.0,1.0,83,0.00,,,0.00,Wunderground v.1.15,2013-01-06 12:31:00,
2013-01-06 07:36:00,46.2,41.3,30.20,WNW,292,0.0,1.0,83,0.00,,,0.00,Wunderground v.1.15,2013-01-06 12:36:00,
2013-01-06 07:41:00,46.3,41.7,30.20,WNW,292,0.0,0.0,84,0.00,,,0.00,Wunderground v.1.15,2013-01-06 12:41:00,
2013-01-06 07:46:00,46.4,41.8,30.20,WNW,292,0.0,1.0,84,0.00,,,0.00,Wunderground v.1.15,2013-01-06 12:46:00,
2013-01-06 07:51:00,46.2,41.6,30.20,WNW,292,0.0,0.0,84,0.00,,,0.00,Wunderground v.1.15,2013-01-06 12:51:00,
2013-01-06 07:56:00,46.2,41.6,30.20,WNW,292,0.0,2.0,84,0.00,,,0.00,Wunderground v.1.15,2013-01-06 12:56:00,
2013-01-06 08:01:00,46.1,41.2,30.19,WNW,292,0.0,0.0,83,0.00,,,0.00,Wunderground v.1.15,2013-01-06 13:01:00,
2013-01-06 08:06:00,46.0,41.1,30.19,WNW,292,2.0,2.0,83,0.00,,,0.00,Wunderground v.1.15,2013-01-06 13:06:00,
2013-01-06 08:11:00,46.1,40.9,30.20,WNW,292,0.0,0.0,82,0.00,,,0.00,Wunderground v.1.15,2013-01-06 13:11:00,
2013-01-06 08:16:00,46.1,40.6,30.19,WNW,292,0.0,2.0,81,0.00,,,0.00,Wunderground v.1.15,2013-01-06 13:16:00,
2013-01-06 08:21:00,46.1,40.6,30.19,WNW,292,0.0,1.0,81,0.00,,,0.00,Wunderground v.1.15,2013-01-06 13:21:00,
2013-01-06 08:26:00,46.2,40.7,30.19,WNW,292,0.0,2.0,81,0.00,,,0.00,Wunderground v.1.15,2013-01-06 13:26:00,
2013-01-06 08:31:00,46.3,40.8,30.19,WNW,292,0.0,0.0,81,0.00,,,0.00,Wunderground v.1.15,2013-01-06 13:31:00,
2013-01-06 08:36:00,46.3,40.8,30.19,WNW,292,0.0,0.0,81,0.00,,,0.00,Wunderground v.1.15,2013-01-06 13:36:00,
2013-01-06 08:41:00,46.3,40.8,30.19,WNW,292,0.0,0.0,81,0.00,,,0.00,Wunderground v.1.15,2013-01-06 13:41:00,
2013-01-06 08:46:00,46.3,40.8,30.19,WNW,292,0.0,0.0,81,0.00,,,0.00,Wunderground v.1.15,2013-01-06 13:46:00,
2013-01-06 08:51:00,46.3,40.8,30.19,WNW,292,0.0,0.0,81,0.00,,,0.00,Wunderground v.1.15,2013-01-06 13:51:00,
2013-01-06 08:56:00,46.3,41.1,30.18,WNW,292,0.0,0.0,82,0.00,,,0.00,Wunderground v.1.15,2013-01-06 13:56:00,
2013-01-06 09:01:00,46.3,41.1,30.19,WNW,292,0.0,0.0,82,0.00,,,0.00,Wunderground v.1.15,2013-01-06 14:01:00,
2013-01-06 09:06:00,46.4,41.2,30.19,WNW,292,0.0,0.0,82,0.00,,,0.00,Wunderground v.1.15,2013-01-06 14:06:00,
2013-01-06 09:11:00,46.4,41.2,30.19,WNW,292,0.0,0.0,82,0.00,,,0.00,Wunderground v.1.15,2013-01-06 14:11:00,
2013-01-06 09:16:00,46.4,41.2,30.20,WNW,292,0.0,0.0,82,0.00,,,0.00,Wunderground v.1.15,2013-01-06 14:16:00,
2013-01-06 09:21:00,46.4,41.2,30.20,WNW,292,0.0,0.0,82,0.00,,,0.00,Wunderground v.1.15,2013-01-06 14:21:00,
2013-01-06 09:26:00,46.4,41.2,30.20,WNW,292,0.0,0.0,82,0.00,,,0.00,Wunderground v.1.15,2013-01-06 14:26:00,
2013-01-06 09:31:00,46.5,41.3,30.20,WNW,292,0.0,1.0,82,0.00,,,0.00,Wunderground v.1.15,2013-01-06 14:31:00,
2013-01-06 09:36:00,46.5,41.6,30.20,WNW,292,0.0,2.0,83,0.00,,,0.00,Wunderground v.1.15,2013-01-06 14:36:00,
2013-01-06 09:41:00,46.5,41.6,30.20,WNW,292,0.0,0.0,83,0.00,,,0.00,Wunderground v.1.15,2013-01-06 14:41:00,
2013-01-06 09:46:00,46.5,41.6,30.20,WNW,292,1.0,2.0,83,0.00,,,0.00,Wunderground v.1.15,2013-01-06 14:46:00,
2013-01-06 09:51:00,46.5,41.6,30.20,WNW,292,0.0,0.0,83,0.00,,,0.00,Wunderground v.1.15,2013-01-06 14:51:00,
2013-01-06 09:56:00,46.5,41.6,30.20,WNW,292,0.0,0.0,83,0.00,,,0.00,Wunderground v.1.15,2013-01-06 14:56:00,
2013-01-06 10:01:00,46.5,41.6,30.20,WNW,292,0.0,0.0,83,0.00,,,0.00,Wunderground v.1.15,2013-01-06 15:01:00,
2013-01-06 10:06:00,46.6,41.7,30.20,WNW,292,0.0,1.0,83,0.00,,,0.00,Wunderground v.1.15,2013-01-06 15:06:00,
2013-01-06 10:11:00,46.7,41.5,30.20,WNW,292,0.0,0.0,82,0.00,,,0.00,Wunderground v.1.15,2013-01-06 15:11:00,
2013-01-06 10:16:00,46.8,41.6,30.20,WNW,292,1.0,2.0,82,0.00,,,0.00,Wunderground v.1.15,2013-01-06 15:16:00,
2013-01-06 10:21:00,46.9,41.7,30.20,WNW,292,0.0,1.0,82,0.00,,,0.00,Wunderground v.1.15,2013-01-06 15:21:00,
2013-01-06 10:26:00,47.0,41.8,30.19,WNW,292,3.0,3.0,82,0.00,,,0.00,Wunderground v.1.15,2013-01-06 15:26:00,
2013-01-06 10:31:00,46.9,41.7,30.19,NW,306,5.0,7.0,82,0.00,,,0.00,Wunderground v.1.15,2013-01-06 15:31:00,
2013-01-06 10:36:00,46.9,42.0,30.19,NW,325,5.0,7.0,83,0.00,,,0.00,Wunderground v.1.15,2013-01-06 15:36:00,
2013-01-06 10:41:00,46.8,41.9,30.18,NW,325,0.0,5.0,83,0.00,,,0.00,Wunderground v.1.15,2013-01-06 15:41:00,
2013-01-06 10:46:00,46.8,41.9,30.19,NW,325,1.0,5.0,83,0.00,,,0.00,Wunderground v.1.15,2013-01-06 15:46:00,
2013-01-06 10:51:00,46.9,42.0,30.19,NW,325,3.0,3.0,83,0.00,,,0.00,Wunderground v.1.15,2013-01-06 15:51:00,
2013-01-06 10:56:00,46.9,42.3,30.19,NW,325,0.0,3.0,84,0.00,,,0.00,Wunderground v.1.15,2013-01-06 15:56:00,
2013-01-06 11:01:00,46.9,42.3,30.18,NW,325,3.0,4.0,84,0.00,,,0.00,Wunderground v.1.15,2013-01-06 16:01:00,
2013-01-06 11:06:00,46.9,42.3,30.18,NW,325,0.0,4.0,84,0.00,,,0.00,Wunderground v.1.15,2013-01-06 16:06:00,
2013-01-06 11:11:00,47.0,42.4,30.18,NW,325,3.0,4.0,84,0.00,,,0.00,Wunderground v.1.15,2013-01-06 16:11:00,
2013-01-06 11:16:00,47.0,42.4,30.17,NW,325,0.0,4.0,84,0.00,,,0.00,Wunderground v.1.15,2013-01-06 16:16:00,
2013-01-06 11:21:00,47.0,42.4,30.17,NW,325,2.0,5.0,84,0.00,,,0.00,Wunderground v.1.15,2013-01-06 16:21:00,
2013-01-06 11:26:00,46.9,42.3,30.17,NW,325,4.0,5.0,84,0.00,,,0.00,Wunderground v.1.15,2013-01-06 16:26:00,
2013-01-06 11:31:00,46.9,42.6,30.17,NW,325,3.0,4.0,85,0.00,,,0.00,Wunderground v.1.15,2013-01-06 16:31:00,
2013-01-06 11:36:00,46.9,42.3,30.17,NW,325,0.0,5.0,84,0.00,,,0.00,Wunderground v.1.15,2013-01-06 16:36:00,
2013-01-06 11:41:00,47.0,42.7,30.17,NW,325,4.0,4.0,85,0.00,,,0.00,Wunderground v.1.15,2013-01-06 16:41:00,
2013-01-06 11:46:00,47.0,42.7,30.17,NW,325,0.0,4.0,85,0.00,,,0.00,Wunderground v.1.15,2013-01-06 16:46:00,
2013-01-06 11:51:00,47.0,42.7,30.16,NW,325,0.0,1.0,85,0.00,,,0.00,Wunderground v.1.15,2013-01-06 16:51:00,
2013-01-06 11:56:00,47.0,42.7,30.15,NW,325,0.0,1.0,85,0.00,,,0.00,Wunderground v.1.15,2013-01-06 16:56:00,
2013-01-06 12:01:00,47.1,42.5,30.14,NW,325,2.0,2.0,84,0.00,,,0.00,Wunderground v.1.15,2013-01-06 17:01:00,
2013-01-06 12:06:00,47.1,42.5,30.15,NW,325,1.0,4.0,84,0.00,,,0.00,Wunderground v.1.15,2013-01-06 17:06:00,
2013-01-06 12:11:00,47.1,42.2,30.15,NW,325,3.0,4.0,83,0.00,,,0.00,Wunderground v.1.15,2013-01-06 17:11:00,
2013-01-06 12:16:00,47.1,42.2,30.14,NW,325,2.0,4.0,83,0.00,,,0.00,Wunderground v.1.15,2013-01-06 17:16:00,
2013-01-06 12:21:00,47.1,42.2,30.14,NW,325,0.0,5.0,83,0.00,,,0.00,Wunderground v.1.15,2013-01-06 17:21:00,
2013-01-06 12:26:00,47.1,42.2,30.13,NW,325,2.0,5.0,83,0.00,,,0.00,Wunderground v.1.15,2013-01-06 17:26:00,
2013-01-06 12:31:00,47.0,41.8,30.13,NW,325,0.0,2.0,82,0.00,,,0.00,Wunderground v.1.15,2013-01-06 17:31:00,
2013-01-06 12:36:00,47.1,41.9,30.13,NW,325,2.0,3.0,82,0.00,,,0.00,Wunderground v.1.15,2013-01-06 17:36:00,
2013-01-06 12:41:00,47.2,42.3,30.13,NW,325,2.0,4.0,83,0.00,,,0.00,Wunderground v.1.15,2013-01-06 17:41:00,
2013-01-06 12:46:00,47.0,41.8,30.12,NW,325,2.0,4.0,82,0.00,,,0.00,Wunderground v.1.15,2013-01-06 17:46:00,
2013-01-06 12:51:00,47.0,41.8,30.11,NW,325,2.0,3.0,82,0.00,,,0.00,Wunderground v.1.15,2013-01-06 17:51:00,
2013-01-06 12:56:00,46.9,41.7,30.11,NW,325,3.0,3.0,82,0.00,,,0.00,Wunderground v.1.15,2013-01-06 17:56:00,
2013-01-06 13:01:00,46.8,41.6,30.11,NW,325,3.0,5.0,82,0.00,,,0.00,Wunderground v.1.15,2013-01-06 18:01:00,
2013-01-06 13:06:00,46.8,41.6,30.11,NW,325,2.0,5.0,82,0.00,,,0.00,Wunderground v.1.15,2013-01-06 18:06:00,
2013-01-06 13:11:00,46.7,41.2,30.11,NW,325,3.0,4.0,81,0.00,,,0.00,Wunderground v.1.15,2013-01-06 18:11:00,
2013-01-06 13:16:00,46.9,41.7,30.10,NW,325,3.0,4.0,82,0.00,,,0.00,Wunderground v.1.15,2013-01-06 18:16:00,
2013-01-06 13:21:00,46.9,41.7,30.10,NW,325,2.0,3.0,82,0.00,,,0.00,Wunderground v.1.15,2013-01-06 18:21:00,
2013-01-06 13:26:00,46.8,41.6,30.10,NW,325,1.0,4.0,82,0.00,,,0.00,Wunderground v.1.15,2013-01-06 18:26:00,
2013-01-06 13:31:00,46.8,41.6,30.10,NW,325,1.0,3.0,82,0.00,,,0.00,Wunderground v.1.15,2013-01-06 18:31:00,
2013-01-06 13:36:00,46.9,42.0,30.10,NW,325,2.0,3.0,83,0.00,,,0.00,Wunderground v.1.15,2013-01-06 18:36:00,
2013-01-06 13:41:00,46.8,41.9,30.09,NW,325,1.0,2.0,83,0.00,,,0.00,Wunderground v.1.15,2013-01-06 18:41:00,
2013-01-06 13:46:00,46.9,42.0,30.09,NW,325,1.0,3.0,83,0.00,,,0.00,Wunderground v.1.15,2013-01-06 18:46:00,
2013-01-06 13:51:00,46.8,41.9,30.10,NW,325,3.0,5.0,83,0.00,,,0.00,Wunderground v.1.15,2013-01-06 18:51:00,
2013-01-06 13:56:00,46.6,41.7,30.10,NW,324,3.0,6.0,83,0.00,,,0.00,Wunderground v.1.15,2013-01-06 18:56:00,
2013-01-06 14:01:00,46.5,41.6,30.10,NW,324,0.0,4.0,83,0.00,,,0.00,Wunderground v.1.15,2013-01-06 19:01:00,
2013-01-06 14:06:00,46.6,41.7,30.10,NW,324,0.0,4.0,83,0.00,,,0.00,Wunderground v.1.15,2013-01-06 19:06:00,
2013-01-06 14:11:00,46.6,42.0,30.10,NW,324,2.0,3.0,84,0.00,,,0.00,Wunderground v.1.15,2013-01-06 19:11:00,
2013-01-06 14:16:00,46.6,42.0,30.10,NW,324,0.0,4.0,84,0.00,,,0.00,Wunderground v.1.15,2013-01-06 19:16:00,
2013-01-06 14:21:00,46.7,42.1,30.10,NW,324,3.0,3.0,84,0.00,,,0.00,Wunderground v.1.15,2013-01-06 19:21:00,
2013-01-06 14:26:00,46.7,41.8,30.10,NW,324,2.0,4.0,83,0.00,,,0.00,Wunderground v.1.15,2013-01-06 19:26:00,
2013-01-06 14:31:00,46.7,41.8,30.08,NW,324,0.0,3.0,83,0.00,,,0.00,Wunderground v.1.15,2013-01-06 19:31:00,
2013-01-06 14:36:00,46.8,41.9,30.09,NW,324,2.0,4.0,83,0.00,,,0.00,Wunderground v.1.15,2013-01-06 19:36:00,
2013-01-06 14:41:00,46.8,41.9,30.09,NW,324,3.0,4.0,83,0.00,,,0.00,Wunderground v.1.15,2013-01-06 19:41:00,
2013-01-06 14:46:00,46.9,42.0,30.09,NW,324,3.0,4.0,83,0.00,,,0.00,Wunderground v.1.15,2013-01-06 19:46:00,
2013-01-06 14:53:00,46.9,42.0,30.08,NW,324,2.0,2.0,83,0.00,,,0.00,Wunderground v.1.15,2013-01-06 19:53:00,
2013-01-06 14:58:00,47.0,42.4,30.08,NW,324,0.0,4.0,84,0.00,,,0.00,Wunderground v.1.15,2013-01-06 19:58:00,
2013-01-06 15:04:00,47.0,42.4,30.08,NW,324,3.0,3.0,84,0.00,,,0.00,Wunderground v.1.15,2013-01-06 20:04:00,
2013-01-06 15:09:00,46.9,42.3,30.08,NW,324,1.0,5.0,84,0.00,,,0.00,Wunderground v.1.15,2013-01-06 20:09:00,
2013-01-06 15:11:00,46.9,42.3,30.08,NW,324,4.0,4.0,84,0.00,,,0.00,Wunderground v.1.15,2013-01-06 20:11:00,
2013-01-06 15:13:00,46.9,42.3,30.08,NW,324,3.0,4.0,84,0.00,,,0.00,Wunderground v.1.15,2013-01-06 20:13:00,
2013-01-06 15:18:00,46.9,42.6,30.08,NW,324,0.0,4.0,85,0.00,,,0.00,Wunderground v.1.15,2013-01-06 20:18:00,
2013-01-06 15:23:00,47.0,42.7,30.08,NW,324,2.0,3.0,85,0.00,,,0.00,Wunderground v.1.15,2013-01-06 20:23:00,
2013-01-06 15:28:00,46.9,42.6,30.08,NW,324,1.0,5.0,85,0.00,,,0.00,Wunderground v.1.15,2013-01-06 20:28:00,
2013-01-06 15:33:00,46.9,42.9,30.08,NW,324,0.0,4.0,86,0.00,,,0.00,Wunderground v.1.15,2013-01-06 20:33:00,
2013-01-06 15:38:00,47.0,43.0,30.09,NW,324,3.0,4.0,86,0.00,,,0.00,Wunderground v.1.15,2013-01-06 20:38:00,
2013-01-06 15:43:00,47.0,43.0,30.08,NW,324,1.0,4.0,86,0.00,,,0.00,Wunderground v.1.15,2013-01-06 20:43:00,
2013-01-06 15:48:00,46.9,43.2,30.09,NW,319,3.0,6.0,87,0.00,,,0.00,Wunderground v.1.15,2013-01-06 20:48:00,
2013-01-06 15:53:00,46.8,43.1,30.09,NW,317,3.0,5.0,87,0.00,,,0.00,Wunderground v.1.15,2013-01-06 20:53:00,
2013-01-06 15:59:00,46.8,43.1,30.09,NW,315,5.0,6.0,87,0.00,,,0.00,Wunderground v.1.15,2013-01-06 20:59:00,
2013-01-06 16:00:00,46.8,43.4,30.09,NW,315,3.0,3.0,88,0.00,,,0.00,Wunderground v.1.15,2013-01-06 21:00:00,
2013-01-06 16:05:00,46.7,43.3,30.09,NW,306,3.0,7.0,88,0.00,,,0.01,Wunderground v.1.15,2013-01-06 21:05:00,
2013-01-06 16:10:00,46.7,43.6,30.09,WNW,298,6.0,6.0,89,0.00,,,0.01,Wunderground v.1.15,2013-01-06 21:10:00,
2013-01-06 16:15:00,46.6,43.5,30.09,WNW,293,2.0,7.0,89,0.00,,,0.01,Wunderground v.1.15,2013-01-06 21:15:00,
2013-01-06 16:20:00,46.6,43.8,30.08,WNW,282,3.0,4.0,90,0.00,,,0.01,Wunderground v.1.15,2013-01-06 21:20:00,
2013-01-06 16:25:00,46.7,43.9,30.08,West,280,3.0,7.0,90,0.00,,,0.01,Wunderground v.1.15,2013-01-06 21:25:00,
2013-01-06 16:30:00,46.8,44.3,30.08,West,280,3.0,4.0,91,0.00,,,0.01,Wunderground v.1.15,2013-01-06 21:30:00,
2013-01-06 16:35:00,46.8,44.3,30.08,West,275,1.0,9.0,91,0.00,,,0.01,Wunderground v.1.15,2013-01-06 21:35:00,
2013-01-06 16:40:00,46.9,44.4,30.08,West,276,3.0,5.0,91,0.00,,,0.01,Wunderground v.1.15,2013-01-06 21:40:00,
2013-01-06 16:45:00,46.9,44.4,30.08,West,275,4.0,6.0,91,0.00,,,0.01,Wunderground v.1.15,2013-01-06 21:45:00,
2013-01-06 16:50:00,46.9,44.4,30.08,West,275,5.0,5.0,91,0.00,,,0.01,Wunderground v.1.15,2013-01-06 21:50:00,
2013-01-06 16:55:00,47.0,44.8,30.08,West,274,3.0,7.0,92,0.00,,,0.01,Wunderground v.1.15,2013-01-06 21:55:00,
2013-01-06 17:00:00,47.0,44.8,30.07,West,274,4.0,5.0,92,0.00,,,0.01,Wunderground v.1.15,2013-01-06 22:00:00,
2013-01-06 17:05:00,47.0,44.8,30.07,West,274,5.0,7.0,92,0.00,,,0.01,Wunderground v.1.15,2013-01-06 22:05:00,
2013-01-06 17:10:00,47.0,44.8,30.07,West,273,3.0,9.0,92,0.00,,,0.01,Wunderground v.1.15,2013-01-06 22:10:00,
2013-01-06 17:15:00,47.0,44.8,30.07,West,276,6.0,10.0,92,0.00,,,0.01,Wunderground v.1.15,2013-01-06 22:15:00,
2013-01-06 17:20:00,47.0,44.8,30.07,WNW,282,3.0,9.0,92,0.00,,,0.01,Wunderground v.1.15,2013-01-06 22:20:00,
2013-01-06 17:25:00,47.0,44.8,30.07,WNW,283,5.0,10.0,92,0.00,,,0.01,Wunderground v.1.15,2013-01-06 22:25:00,
2013-01-06 17:30:00,47.0,44.8,30.06,WNW,286,2.0,6.0,92,0.00,,,0.01,Wunderground v.1.15,2013-01-06 22:30:00,
2013-01-06 17:35:00,46.9,44.7,30.06,WNW,284,5.0,6.0,92,0.00,,,0.01,Wunderground v.1.15,2013-01-06 22:35:00,
2013-01-06 17:40:00,46.9,44.7,30.06,West,278,4.0,4.0,92,0.00,,,0.01,Wunderground v.1.15,2013-01-06 22:40:00,
2013-01-06 17:45:00,46.9,44.7,30.06,West,273,3.0,9.0,92,0.00,,,0.01,Wunderground v.1.15,2013-01-06 22:45:00,
2013-01-06 17:50:00,46.9,44.7,30.06,West,269,5.0,7.0,92,0.00,,,0.01,Wunderground v.1.15,2013-01-06 22:50:00,
2013-01-06 17:55:00,46.9,44.7,30.07,West,269,4.0,7.0,92,0.00,,,0.01,Wunderground v.1.15,2013-01-06 22:55:00,
2013-01-06 18:00:00,47.0,44.8,30.07,West,269,4.0,6.0,92,0.00,,,0.01,Wunderground v.1.15,2013-01-06 23:00:00,
2013-01-06 18:05:00,47.0,44.8,30.06,West,269,7.0,9.0,92,0.00,,,0.01,Wunderground v.1.15,2013-01-06 23:05:00,
2013-01-06 18:10:00,46.9,45.0,30.07,West,268,3.0,4.0,93,0.00,,,0.01,Wunderground v.1.15,2013-01-06 23:10:00,
2013-01-06 18:15:00,46.9,45.0,30.07,West,264,3.0,10.0,93,0.00,,,0.01,Wunderground v.1.15,2013-01-06 23:15:00,
2013-01-06 18:20:00,46.9,45.0,30.06,West,264,2.0,4.0,93,0.00,,,0.01,Wunderground v.1.15,2013-01-06 23:20:00,
2013-01-06 18:25:00,46.9,45.0,30.06,West,263,6.0,10.0,93,0.00,,,0.01,Wunderground v.1.15,2013-01-06 23:25:00,
2013-01-06 18:30:00,46.9,45.0,30.07,West,263,3.0,6.0,93,0.00,,,0.01,Wunderground v.1.15,2013-01-06 23:30:00,
2013-01-06 18:35:00,46.9,45.0,30.06,West,263,4.0,6.0,93,0.00,,,0.01,Wunderground v.1.15,2013-01-06 23:35:00,
2013-01-06 18:40:00,46.8,44.9,30.06,West,263,2.0,5.0,93,0.00,,,0.01,Wunderground v.1.15,2013-01-06 23:40:00,
2013-01-06 18:45:00,46.9,45.0,30.06,West,263,2.0,6.0,93,0.00,,,0.01,Wunderground v.1.15,2013-01-06 23:45:00,
2013-01-06 18:50:00,46.9,45.0,30.07,West,265,5.0,7.0,93,0.00,,,0.01,Wunderground v.1.15,2013-01-06 23:50:00,
2013-01-06 18:55:00,46.9,45.0,30.06,West,271,1.0,7.0,93,0.00,,,0.01,Wunderground v.1.15,2013-01-06 23:55:00,
2013-01-06 19:00:00,46.8,44.9,30.06,West,271,2.0,4.0,93,0.00,,,0.01,Wunderground v.1.15,2013-01-07 00:00:00,
2013-01-06 19:05:00,46.9,45.0,30.06,West,271,0.0,4.0,93,0.00,,,0.01,Wunderground v.1.15,2013-01-07 00:05:00,
2013-01-06 19:10:00,46.8,44.9,30.06,West,271,3.0,4.0,93,0.00,,,0.01,Wunderground v.1.15,2013-01-07 00:10:00,
2013-01-06 19:15:00,46.8,44.9,30.06,West,271,0.0,5.0,93,0.00,,,0.01,Wunderground v.1.15,2013-01-07 00:15:00,
2013-01-06 19:20:00,46.8,44.9,30.06,West,271,2.0,4.0,93,0.00,,,0.01,Wunderground v.1.15,2013-01-07 00:20:00,
2013-01-06 19:25:00,46.9,45.3,30.06,West,271,2.0,5.0,94,0.00,,,0.01,Wunderground v.1.15,2013-01-07 00:25:00,
2013-01-06 19:30:00,46.8,45.2,30.06,West,271,0.0,2.0,94,0.00,,,0.01,Wunderground v.1.15,2013-01-07 00:30:00,
2013-01-06 19:35:00,46.9,45.3,30.06,West,271,0.0,3.0,94,0.00,,,0.01,Wunderground v.1.15,2013-01-07 00:35:00,
2013-01-06 19:40:00,46.8,45.2,30.06,West,271,0.0,0.0,94,0.00,,,0.02,Wunderground v.1.15,2013-01-07 00:40:00,
2013-01-06 19:45:00,46.9,45.3,30.06,West,271,0.0,2.0,94,0.00,,,0.02,Wunderground v.1.15,2013-01-07 00:45:00,
2013-01-06 19:50:00,46.9,45.3,30.07,West,271,2.0,2.0,94,0.08,,,0.03,Wunderground v.1.15,2013-01-07 00:50:00,
2013-01-06 19:55:00,46.9,45.3,30.07,West,271,3.0,3.0,94,0.08,,,0.04,Wunderground v.1.15,2013-01-07 00:55:00,
2013-01-06 20:00:00,46.9,45.3,30.08,West,271,0.0,2.0,94,0.08,,,0.04,Wunderground v.1.15,2013-01-07 01:00:00,
2013-01-06 20:05:00,46.9,45.3,30.08,West,271,2.0,3.0,94,0.07,,,0.05,Wunderground v.1.15,2013-01-07 01:05:00,
2013-01-06 20:10:00,46.9,45.3,30.08,West,271,1.0,2.0,94,0.07,,,0.05,Wunderground v.1.15,2013-01-07 01:10:00,
2013-01-06 20:15:00,46.9,45.3,30.08,West,271,0.0,2.0,94,0.06,,,0.06,Wunderground v.1.15,2013-01-07 01:15:00,
2013-01-06 20:20:00,46.8,45.2,30.08,West,271,2.0,3.0,94,0.06,,,0.06,Wunderground v.1.15,2013-01-07 01:20:00,
2013-01-06 20:25:00,46.8,45.2,30.08,West,271,1.0,5.0,94,0.06,,,0.07,Wunderground v.1.15,2013-01-07 01:25:00,
2013-01-06 20:30:00,46.8,45.2,30.09,West,271,2.0,3.0,94,0.06,,,0.07,Wunderground v.1.15,2013-01-07 01:30:00,
2013-01-06 20:35:00,46.8,45.4,30.08,West,271,3.0,5.0,95,0.06,,,0.08,Wunderground v.1.15,2013-01-07 01:35:00,
2013-01-06 20:40:00,46.8,45.4,30.09,West,271,3.0,4.0,95,0.06,,,0.08,Wunderground v.1.15,2013-01-07 01:40:00,
2013-01-06 20:45:00,46.8,45.4,30.09,West,271,3.0,5.0,95,0.05,,,0.08,Wunderground v.1.15,2013-01-07 01:45:00,
2013-01-06 20:50:00,46.8,45.4,30.08,West,271,5.0,5.0,95,0.04,,,0.08,Wunderground v.1.15,2013-01-07 01:50:00,
2013-01-06 20:55:00,46.7,45.3,30.08,West,271,4.0,5.0,95,0.14,,,0.09,Wunderground v.1.15,2013-01-07 01:55:00,
2013-01-06 21:00:00,46.7,45.3,30.09,West,275,4.0,6.0,95,0.12,,,0.10,Wunderground v.1.15,2013-01-07 02:00:00,
2013-01-06 21:05:00,46.7,45.3,30.08,West,275,2.0,6.0,95,0.09,,,0.11,Wunderground v.1.15,2013-01-07 02:05:00,
2013-01-06 21:10:00,46.7,45.3,30.08,West,275,0.0,3.0,95,0.09,,,0.12,Wunderground v.1.15,2013-01-07 02:10:00,
2013-01-06 21:15:00,46.7,45.3,30.08,West,275,0.0,4.0,95,0.09,,,0.12,Wunderground v.1.15,2013-01-07 02:15:00,
2013-01-06 21:20:00,46.7,45.3,30.07,West,275,0.0,2.0,95,0.05,,,0.12,Wunderground v.1.15,2013-01-07 02:20:00,
2013-01-06 21:25:00,46.6,45.2,30.08,West,275,0.0,4.0,95,0.04,,,0.12,Wunderground v.1.15,2013-01-07 02:25:00,
2013-01-06 21:30:00,46.4,45.0,30.08,West,275,3.0,4.0,95,0.00,,,0.12,Wunderground v.1.15,2013-01-07 02:30:00,
2013-01-06 21:35:00,46.4,45.0,30.08,West,275,0.0,4.0,95,0.00,,,0.12,Wunderground v.1.15,2013-01-07 02:35:00,
2013-01-06 21:40:00,46.4,45.0,30.08,West,275,3.0,4.0,95,0.00,,,0.12,Wunderground v.1.15,2013-01-07 02:40:00,
2013-01-06 21:45:00,46.5,45.1,30.08,West,275,0.0,5.0,95,0.00,,,0.12,Wunderground v.1.15,2013-01-07 02:45:00,
2013-01-06 21:50:00,46.6,45.2,30.08,West,275,2.0,4.0,95,0.00,,,0.12,Wunderground v.1.15,2013-01-07 02:50:00,
2013-01-06 21:55:00,46.6,45.2,30.08,West,275,0.0,4.0,95,0.00,,,0.12,Wunderground v.1.15,2013-01-07 02:55:00,
2013-01-06 22:00:00,46.7,45.3,30.08,West,275,2.0,3.0,95,0.00,,,0.12,Wunderground v.1.15,2013-01-07 03:00:00,
2013-01-06 22:05:00,46.7,45.3,30.08,West,275,3.0,5.0,95,0.00,,,0.13,Wunderground v.1.15,2013-01-07 03:05:00,
2013-01-06 22:10:00,46.7,45.3,30.08,West,275,4.0,6.0,95,0.00,,,0.13,Wunderground v.1.15,2013-01-07 03:10:00,
2013-01-06 22:15:00,46.6,45.2,30.08,WNW,282,3.0,7.0,95,0.00,,,0.13,Wunderground v.1.15,2013-01-07 03:15:00,
2013-01-06 22:20:00,46.6,45.2,30.07,WNW,291,5.0,7.0,95,0.00,,,0.13,Wunderground v.1.15,2013-01-07 03:20:00,
2013-01-06 22:25:00,46.6,45.2,30.08,WNW,294,6.0,7.0,95,0.00,,,0.13,Wunderground v.1.15,2013-01-07 03:25:00,
2013-01-06 22:30:00,46.7,45.3,30.08,NW,306,5.0,7.0,95,0.00,,,0.13,Wunderground v.1.15,2013-01-07 03:30:00,
2013-01-06 22:35:00,46.8,45.4,30.08,NW,314,5.0,8.0,95,0.00,,,0.13,Wunderground v.1.15,2013-01-07 03:35:00,
2013-01-06 22:40:00,46.9,45.5,30.08,NW,321,8.0,10.0,95,0.00,,,0.13,Wunderground v.1.15,2013-01-07 03:40:00,
2013-01-06 22:45:00,46.8,45.4,30.08,NW,321,10.0,13.0,95,0.00,,,0.13,Wunderground v.1.15,2013-01-07 03:45:00,
2013-01-06 22:50:00,46.8,45.4,30.08,NNW,327,13.0,14.0,95,0.00,,,0.13,Wunderground v.1.15,2013-01-07 03:50:00,
2013-01-06 22:55:00,46.6,45.2,30.08,NNW,333,10.0,16.0,95,0.00,,,0.13,Wunderground v.1.15,2013-01-07 03:55:00,
2013-01-06 23:00:00,46.5,45.1,30.08,NNW,329,9.0,12.0,95,0.00,,,0.13,Wunderground v.1.15,2013-01-07 04:00:00,
2013-01-06 23:05:00,46.5,45.1,30.08,NNW,327,9.0,12.0,95,0.00,,,0.13,Wunderground v.1.15,2013-01-07 04:05:00,
2013-01-06 23:10:00,46.4,45.0,30.08,NW,323,9.0,12.0,95,0.00,,,0.13,Wunderground v.1.15,2013-01-07 04:10:00,
2013-01-06 23:15:00,46.4,45.0,30.09,NW,320,7.0,12.0,95,0.00,,,0.13,Wunderground v.1.15,2013-01-07 04:15:00,
2013-01-06 23:20:00,46.3,44.9,30.09,NW,325,9.0,12.0,95,0.00,,,0.13,Wunderground v.1.15,2013-01-07 04:20:00,
2013-01-06 23:25:00,46.3,44.9,30.09,NW,323,9.0,12.0,95,0.00,,,0.13,Wunderground v.1.15,2013-01-07 04:25:00,
2013-01-06 23:30:00,46.3,44.9,30.09,NW,322,11.0,11.0,95,0.00,,,0.13,Wunderground v.1.15,2013-01-07 04:30:00,
2013-01-06 23:35:00,46.3,44.9,30.09,NW,324,7.0,13.0,95,0.00,,,0.13,Wunderground v.1.15,2013-01-07 04:35:00,
2013-01-06 23:40:00,46.3,44.9,30.09,NW,326,10.0,13.0,95,0.00,,,0.13,Wunderground v.1.15,2013-01-07 04:40:00,
2013-01-06 23:45:00,46.3,44.9,30.09,NW,325,13.0,14.0,95,0.00,,,0.13,Wunderground v.1.15,2013-01-07 04:45:00,
2013-01-06 23:50:00,46.3,44.9,30.08,NNW,333,7.0,12.0,95,0.00,,,0.13,Wunderground v.1.15,2013-01-07 04:50:00,
2013-01-06 23:56:00,46.2,44.8,30.09,NNW,334,16.0,16.0,95,0.00,,,0.13,Wunderground v.1.15,2013-01-07 04:56:00,